This is the latest recevied weather packets stored in our database for station/object XQ6AK-15. If no packets are shown the sender has not sent any weather packets the latest 10 day(s).
| Time | Temp. | Humidity | Pressure | Rain* | Wind** | Luminosity | Snow |
|---|---|---|---|---|---|---|---|
| 1787764157 | 9.44° C | 99% | 998.1 hPa | 0 mm | - | 107 W/m² | - |
| 1787763853 | 9.44° C | 99% | 998 hPa | 0 mm | - | 219 W/m² | - |
| 1787763547 | 9.44° C | 99% | 998.6 hPa | 0 mm | - | 121 W/m² | - |
| 1787763243 | 8.89° C | 99% | 998.4 hPa | 0 mm | - | 126 W/m² | - |
| 1787762937 | 8.89° C | 99% | 998.6 hPa | 0 mm | - | 86 W/m² | - |
| 1787762632 | 8.89° C | 99% | 998.7 hPa | 0 mm | - | 54 W/m² | - |
| 1787762329 | 9.44° C | 99% | 998.6 hPa | 1.78 mm | - | 40 W/m² | - |
| 1787762028 | 9.44° C | 99% | 998.8 hPa | 1.78 mm | - | 53 W/m² | - |
| 1787761728 | 8.89° C | 99% | 998.7 hPa | 0 mm | - | 56 W/m² | - |
| 1787761423 | 8.89° C | 99% | 998.8 hPa | 0 mm | - | 32 W/m² | - |
| 1787761118 | 8.89° C | 99% | 998.9 hPa | 0 mm | - | 39 W/m² | - |
| 1787760818 | 8.89° C | 99% | 999.2 hPa | 0 mm | - | 54 W/m² | - |
| 1787760516 | 9.44° C | 99% | 999.1 hPa | 1.78 mm | - | 124 W/m² | - |
| 1787760211 | 8.89° C | 99% | 999.2 hPa | 1.78 mm | - | 164 W/m² | - |
| 1787759907 | 8.89° C | 99% | 999 hPa | 1.27 mm | - | 128 W/m² | - |
| 1787759602 | 8.33° C | 99% | 999.3 hPa | 26.92 mm | - | 56 W/m² | - |
| 1787759298 | 8.89° C | 99% | 999.3 hPa | 30.73 mm | - | 12 W/m² | - |
| 1787758993 | 10° C | 99% | 999 hPa | 10.67 mm | - | 4 W/m² | - |
| 1787758687 | 10.56° C | 97% | 998.4 hPa | 4.83 mm | - | 9 W/m² | - |
| 1787758383 | 10.56° C | 96% | 998.4 hPa | 0 mm | - | 16 W/m² | - |
| 1787758081 | 10.56° C | 96% | 998.4 hPa | 0 mm | - | 19 W/m² | - |
| 1787757778 | 10.56° C | 96% | 998.3 hPa | 0 mm | - | 29 W/m² | - |
| 1787757477 | 10.56° C | 96% | 998.2 hPa | 1.78 mm | - | 71 W/m² | - |
| 1787757172 | 10.56° C | 98% | 998.1 hPa | 1.78 mm | - | 62 W/m² | - |
| 1787756870 | 10° C | 99% | 998 hPa | 1.27 mm | - | 252 W/m² | - |
* Rain latest hour (hover to see other rain measurements)
** Current wind speed in m/s (hover to see current wind gust speed)